sensor_id;sensor_type;location;lat;lon;timestamp;temperature;humidity
51559;DHT22;61650;48.882;2.092;2023-02-20T00:00:39;3.00;90.60
51559;DHT22;61650;48.882;2.092;2023-02-20T00:03:05;3.00;90.80
51559;DHT22;61650;48.882;2.092;2023-02-20T00:05:31;3.00;91.00
51559;DHT22;61650;48.882;2.092;2023-02-20T00:07:57;3.00;91.10
51559;DHT22;61650;48.882;2.092;2023-02-20T00:10:23;3.10;91.20
51559;DHT22;61650;48.882;2.092;2023-02-20T00:12:49;3.10;91.10
51559;DHT22;61650;48.882;2.092;2023-02-20T00:15:16;3.10;90.60
51559;DHT22;61650;48.882;2.092;2023-02-20T00:17:44;3.10;90.70
51559;DHT22;61650;48.882;2.092;2023-02-20T00:20:23;3.10;90.60
51559;DHT22;61650;48.882;2.092;2023-02-20T00:22:50;3.10;90.10
51559;DHT22;61650;48.882;2.092;2023-02-20T00:25:16;3.10;90.40
51559;DHT22;61650;48.882;2.092;2023-02-20T00:27:43;3.10;90.00
51559;DHT22;61650;48.882;2.092;2023-02-20T00:30:19;3.10;90.40
51559;DHT22;61650;48.882;2.092;2023-02-20T00:32:50;3.00;90.30
51559;DHT22;61650;48.882;2.092;2023-02-20T00:35:16;3.10;90.20
51559;DHT22;61650;48.882;2.092;2023-02-20T00:37:43;3.00;89.10
51559;DHT22;61650;48.882;2.092;2023-02-20T00:40:09;2.80;89.50
51559;DHT22;61650;48.882;2.092;2023-02-20T00:42:36;2.70;90.20
51559;DHT22;61650;48.882;2.092;2023-02-20T00:45:02;2.70;91.10
51559;DHT22;61650;48.882;2.092;2023-02-20T00:47:28;2.70;92.30
51559;DHT22;61650;48.882;2.092;2023-02-20T00:49:54;2.80;92.20
51559;DHT22;61650;48.882;2.092;2023-02-20T00:52:19;2.90;91.60
51559;DHT22;61650;48.882;2.092;2023-02-20T00:54:45;2.90;90.50
51559;DHT22;61650;48.882;2.092;2023-02-20T00:57:10;2.90;89.60
51559;DHT22;61650;48.882;2.092;2023-02-20T00:59:36;2.70;89.80
51559;DHT22;61650;48.882;2.092;2023-02-20T01:02:03;2.60;90.20
51559;DHT22;61650;48.882;2.092;2023-02-20T01:04:29;2.50;90.80
51559;DHT22;61650;48.882;2.092;2023-02-20T01:06:54;2.50;91.60
51559;DHT22;61650;48.882;2.092;2023-02-20T01:09:20;2.50;91.80
51559;DHT22;61650;48.882;2.092;2023-02-20T01:11:45;2.50;92.40
51559;DHT22;61650;48.882;2.092;2023-02-20T01:14:12;2.70;92.80
51559;DHT22;61650;48.882;2.092;2023-02-20T01:16:44;2.80;92.50
51559;DHT22;61650;48.882;2.092;2023-02-20T01:19:10;2.90;92.20
51559;DHT22;61650;48.882;2.092;2023-02-20T01:21:35;2.80;92.40
51559;DHT22;61650;48.882;2.092;2023-02-20T01:24:04;2.90;92.60
51559;DHT22;61650;48.882;2.092;2023-02-20T01:26:29;3.00;92.40
51559;DHT22;61650;48.882;2.092;2023-02-20T01:28:55;3.00;91.70
51559;DHT22;61650;48.882;2.092;2023-02-20T01:31:21;2.90;91.80
51559;DHT22;61650;48.882;2.092;2023-02-20T01:33:46;3.00;92.50
51559;DHT22;61650;48.882;2.092;2023-02-20T01:36:12;3.00;92.60
51559;DHT22;61650;48.882;2.092;2023-02-20T01:38:39;3.00;92.40
51559;DHT22;61650;48.882;2.092;2023-02-20T01:41:07;3.00;92.30
51559;DHT22;61650;48.882;2.092;2023-02-20T01:43:32;3.00;92.30
51559;DHT22;61650;48.882;2.092;2023-02-20T01:51:30;3.00;92.30
51559;DHT22;61650;48.882;2.092;2023-02-20T01:53:56;3.10;91.80
51559;DHT22;61650;48.882;2.092;2023-02-20T01:56:22;3.00;90.90
51559;DHT22;61650;48.882;2.092;2023-02-20T01:58:49;2.80;90.10
51559;DHT22;61650;48.882;2.092;2023-02-20T02:01:15;2.70;90.50
51559;DHT22;61650;48.882;2.092;2023-02-20T02:03:43;2.50;91.60
51559;DHT22;61650;48.882;2.092;2023-02-20T02:06:11;2.60;94.40
51559;DHT22;61650;48.882;2.092;2023-02-20T02:08:39;2.70;95.00
51559;DHT22;61650;48.882;2.092;2023-02-20T02:11:08;2.80;94.30
51559;DHT22;61650;48.882;2.092;2023-02-20T02:13:37;2.70;93.30
51559;DHT22;61650;48.882;2.092;2023-02-20T02:22:33;2.70;94.90
51559;DHT22;61650;48.882;2.092;2023-02-20T02:25:15;2.80;94.80
51559;DHT22;61650;48.882;2.092;2023-02-20T02:28:12;2.70;94.40
51559;DHT22;61650;48.882;2.092;2023-02-20T02:36:36;2.60;92.90
51559;DHT22;61650;48.882;2.092;2023-02-20T02:39:38;2.40;92.40
51559;DHT22;61650;48.882;2.092;2023-02-20T02:47:17;2.20;92.40
51559;DHT22;61650;48.882;2.092;2023-02-20T02:49:52;2.10;92.80
51559;DHT22;61650;48.882;2.092;2023-02-20T02:52:21;2.10;92.70
51559;DHT22;61650;48.882;2.092;2023-02-20T02:55:19;2.10;92.60
51559;DHT22;61650;48.882;2.092;2023-02-20T02:57:46;2.00;92.10
51559;DHT22;61650;48.882;2.092;2023-02-20T03:00:22;2.00;92.20
51559;DHT22;61650;48.882;2.092;2023-02-20T03:02:54;2.00;92.00
51559;DHT22;61650;48.882;2.092;2023-02-20T03:05:26;2.00;91.80
51559;DHT22;61650;48.882;2.092;2023-02-20T03:08:13;2.00;92.00
51559;DHT22;61650;48.882;2.092;2023-02-20T03:10:47;2.00;92.00
51559;DHT22;61650;48.882;2.092;2023-02-20T03:13:18;2.00;92.10
51559;DHT22;61650;48.882;2.092;2023-02-20T03:15:51;2.00;92.30
51559;DHT22;61650;48.882;2.092;2023-02-20T03:18:38;2.00;92.20
51559;DHT22;61650;48.882;2.092;2023-02-20T03:21:12;2.10;92.70
51559;DHT22;61650;48.882;2.092;2023-02-20T03:23:41;2.10;92.60
51559;DHT22;61650;48.882;2.092;2023-02-20T03:26:12;2.20;92.50
51559;DHT22;61650;48.882;2.092;2023-02-20T03:28:58;2.20;92.70
51559;DHT22;61650;48.882;2.092;2023-02-20T03:31:36;2.30;93.00
51559;DHT22;61650;48.882;2.092;2023-02-20T03:34:17;2.30;93.30
51559;DHT22;61650;48.882;2.092;2023-02-20T03:37:30;2.40;93.30
51559;DHT22;61650;48.882;2.092;2023-02-20T03:40:16;2.50;93.30
51559;DHT22;61650;48.882;2.092;2023-02-20T03:43:04;2.50;93.40
51559;DHT22;61650;48.882;2.092;2023-02-20T03:46:18;2.40;93.50
51559;DHT22;61650;48.882;2.092;2023-02-20T03:49:06;2.40;94.10
51559;DHT22;61650;48.882;2.092;2023-02-20T03:51:34;2.50;94.20
51559;DHT22;61650;48.882;2.092;2023-02-20T03:53:59;2.40;93.60
51559;DHT22;61650;48.882;2.092;2023-02-20T03:56:27;2.40;93.40
51559;DHT22;61650;48.882;2.092;2023-02-20T03:59:17;2.40;93.90
51559;DHT22;61650;48.882;2.092;2023-02-20T04:01:46;2.50;94.00
51559;DHT22;61650;48.882;2.092;2023-02-20T04:04:17;2.40;94.10
51559;DHT22;61650;48.882;2.092;2023-02-20T04:06:45;2.50;94.50
51559;DHT22;61650;48.882;2.092;2023-02-20T04:09:16;2.60;94.80
51559;DHT22;61650;48.882;2.092;2023-02-20T04:11:49;2.60;94.40
51559;DHT22;61650;48.882;2.092;2023-02-20T04:14:18;2.50;93.60
51559;DHT22;61650;48.882;2.092;2023-02-20T04:16:51;2.50;93.50
51559;DHT22;61650;48.882;2.092;2023-02-20T04:19:19;2.50;93.50
51559;DHT22;61650;48.882;2.092;2023-02-20T04:21:48;2.40;93.50
51559;DHT22;61650;48.882;2.092;2023-02-20T04:24:22;2.30;93.10
51559;DHT22;61650;48.882;2.092;2023-02-20T04:26:49;2.20;93.20
51559;DHT22;61650;48.882;2.092;2023-02-20T04:29:15;2.00;93.40
51559;DHT22;61650;48.882;2.092;2023-02-20T04:31:40;2.00;93.80
51559;DHT22;61650;48.882;2.092;2023-02-20T04:34:06;2.00;93.40
51559;DHT22;61650;48.882;2.092;2023-02-20T04:36:32;1.90;93.50
51559;DHT22;61650;48.882;2.092;2023-02-20T04:38:57;1.90;94.00
51559;DHT22;61650;48.882;2.092;2023-02-20T04:41:23;1.90;94.60
51559;DHT22;61650;48.882;2.092;2023-02-20T04:43:48;2.00;94.80
51559;DHT22;61650;48.882;2.092;2023-02-20T04:46:15;2.00;94.60
51559;DHT22;61650;48.882;2.092;2023-02-20T04:48:40;1.90;93.70
51559;DHT22;61650;48.882;2.092;2023-02-20T04:51:06;1.80;93.10
51559;DHT22;61650;48.882;2.092;2023-02-20T04:53:32;1.70;92.70
51559;DHT22;61650;48.882;2.092;2023-02-20T04:55:57;1.60;92.80
51559;DHT22;61650;48.882;2.092;2023-02-20T04:58:23;1.50;93.60
51559;DHT22;61650;48.882;2.092;2023-02-20T05:00:48;1.60;93.70
51559;DHT22;61650;48.882;2.092;2023-02-20T05:03:14;1.60;93.40
51559;DHT22;61650;48.882;2.092;2023-02-20T05:05:39;1.60;93.20
51559;DHT22;61650;48.882;2.092;2023-02-20T05:08:07;1.50;93.20
51559;DHT22;61650;48.882;2.092;2023-02-20T05:10:34;1.60;93.10
51559;DHT22;61650;48.882;2.092;2023-02-20T05:13:00;1.50;92.90
51559;DHT22;61650;48.882;2.092;2023-02-20T05:15:28;1.50;93.30
51559;DHT22;61650;48.882;2.092;2023-02-20T05:17:54;1.50;93.30
51559;DHT22;61650;48.882;2.092;2023-02-20T05:20:20;1.40;93.40
51559;DHT22;61650;48.882;2.092;2023-02-20T05:22:47;1.40;93.70
51559;DHT22;61650;48.882;2.092;2023-02-20T05:25:14;1.40;93.70
51559;DHT22;61650;48.882;2.092;2023-02-20T05:27:40;1.40;93.50
51559;DHT22;61650;48.882;2.092;2023-02-20T05:30:07;1.40;93.10
51559;DHT22;61650;48.882;2.092;2023-02-20T05:32:34;1.40;92.90
51559;DHT22;61650;48.882;2.092;2023-02-20T05:34:59;1.30;93.20
51559;DHT22;61650;48.882;2.092;2023-02-20T05:37:26;1.30;93.40
51559;DHT22;61650;48.882;2.092;2023-02-20T05:39:52;1.30;93.30
51559;DHT22;61650;48.882;2.092;2023-02-20T05:42:18;1.30;93.30
51559;DHT22;61650;48.882;2.092;2023-02-20T05:44:45;1.30;93.20
51559;DHT22;61650;48.882;2.092;2023-02-20T05:47:11;1.30;93.30
51559;DHT22;61650;48.882;2.092;2023-02-20T05:49:37;1.30;93.30
51559;DHT22;61650;48.882;2.092;2023-02-20T05:52:03;1.30;93.40
51559;DHT22;61650;48.882;2.092;2023-02-20T05:54:36;1.40;93.50
51559;DHT22;61650;48.882;2.092;2023-02-20T05:57:03;1.50;93.50
51559;DHT22;61650;48.882;2.092;2023-02-20T05:59:28;1.50;93.30
51559;DHT22;61650;48.882;2.092;2023-02-20T06:01:58;1.60;93.10
51559;DHT22;61650;48.882;2.092;2023-02-20T06:04:24;1.60;92.80
51559;DHT22;61650;48.882;2.092;2023-02-20T06:06:50;1.60;92.90
51559;DHT22;61650;48.882;2.092;2023-02-20T06:09:16;1.70;93.10
51559;DHT22;61650;48.882;2.092;2023-02-20T06:11:51;1.80;92.80
51559;DHT22;61650;48.882;2.092;2023-02-20T06:14:18;1.80;92.20
51559;DHT22;61650;48.882;2.092;2023-02-20T06:16:45;1.80;92.30
51559;DHT22;61650;48.882;2.092;2023-02-20T06:19:11;1.80;91.80
51559;DHT22;61650;48.882;2.092;2023-02-20T06:21:44;1.80;91.80
51559;DHT22;61650;48.882;2.092;2023-02-20T06:24:10;1.70;92.00
51559;DHT22;61650;48.882;2.092;2023-02-20T06:26:38;1.60;92.40
51559;DHT22;61650;48.882;2.092;2023-02-20T06:29:04;1.50;92.70
51559;DHT22;61650;48.882;2.092;2023-02-20T06:31:30;1.50;93.00
51559;DHT22;61650;48.882;2.092;2023-02-20T06:33:56;1.50;92.80
51559;DHT22;61650;48.882;2.092;2023-02-20T06:36:27;1.50;92.80
51559;DHT22;61650;48.882;2.092;2023-02-20T06:38:54;1.40;92.70
51559;DHT22;61650;48.882;2.092;2023-02-20T06:41:19;1.40;92.90
51559;DHT22;61650;48.882;2.092;2023-02-20T06:43:45;1.40;93.20
51559;DHT22;61650;48.882;2.092;2023-02-20T06:46:11;1.40;93.10
51559;DHT22;61650;48.882;2.092;2023-02-20T06:48:47;1.40;93.00
51559;DHT22;61650;48.882;2.092;2023-02-20T06:51:18;1.40;92.70
51559;DHT22;61650;48.882;2.092;2023-02-20T06:53:44;1.40;92.50
51559;DHT22;61650;48.882;2.092;2023-02-20T06:56:13;1.50;92.60
51559;DHT22;61650;48.882;2.092;2023-02-20T06:58:40;1.50;91.90
51559;DHT22;61650;48.882;2.092;2023-02-20T07:01:07;1.30;91.70
51559;DHT22;61650;48.882;2.092;2023-02-20T07:03:32;1.40;92.10
51559;DHT22;61650;48.882;2.092;2023-02-20T07:05:58;1.50;92.20
51559;DHT22;61650;48.882;2.092;2023-02-20T07:08:23;1.40;91.30
51559;DHT22;61650;48.882;2.092;2023-02-20T07:10:49;1.30;92.10
51559;DHT22;61650;48.882;2.092;2023-02-20T07:13:14;1.20;92.50
51559;DHT22;61650;48.882;2.092;2023-02-20T07:15:40;1.30;92.70
51559;DHT22;61650;48.882;2.092;2023-02-20T07:18:06;1.40;92.70
51559;DHT22;61650;48.882;2.092;2023-02-20T07:20:31;1.40;92.50
51559;DHT22;61650;48.882;2.092;2023-02-20T07:22:57;1.50;92.60
51559;DHT22;61650;48.882;2.092;2023-02-20T07:25:23;1.50;92.00
51559;DHT22;61650;48.882;2.092;2023-02-20T07:27:48;1.60;91.80
51559;DHT22;61650;48.882;2.092;2023-02-20T07:30:14;1.60;91.90
51559;DHT22;61650;48.882;2.092;2023-02-20T07:32:40;1.70;91.90
51559;DHT22;61650;48.882;2.092;2023-02-20T07:35:05;1.80;91.60
51559;DHT22;61650;48.882;2.092;2023-02-20T07:37:31;1.90;91.50
51559;DHT22;61650;48.882;2.092;2023-02-20T07:39:57;1.90;91.60
51559;DHT22;61650;48.882;2.092;2023-02-20T07:42:22;2.00;91.40
51559;DHT22;61650;48.882;2.092;2023-02-20T07:44:48;2.00;91.50
51559;DHT22;61650;48.882;2.092;2023-02-20T07:47:14;2.10;91.30
51559;DHT22;61650;48.882;2.092;2023-02-20T07:49:40;2.20;91.50
51559;DHT22;61650;48.882;2.092;2023-02-20T07:52:05;2.30;91.80
51559;DHT22;61650;48.882;2.092;2023-02-20T07:54:31;2.40;92.20
51559;DHT22;61650;48.882;2.092;2023-02-20T07:56:57;2.60;92.40
51559;DHT22;61650;48.882;2.092;2023-02-20T07:59:22;2.70;92.50
51559;DHT22;61650;48.882;2.092;2023-02-20T08:01:48;2.70;93.10
51559;DHT22;61650;48.882;2.092;2023-02-20T08:04:14;2.80;94.20
51559;DHT22;61650;48.882;2.092;2023-02-20T08:06:39;2.80;95.00
51559;DHT22;61650;48.882;2.092;2023-02-20T08:09:05;3.00;95.20
51559;DHT22;61650;48.882;2.092;2023-02-20T08:11:35;3.00;95.50
51559;DHT22;61650;48.882;2.092;2023-02-20T08:14:02;3.10;96.00
51559;DHT22;61650;48.882;2.092;2023-02-20T08:16:28;3.10;96.60
51559;DHT22;61650;48.882;2.092;2023-02-20T08:18:54;3.20;97.10
51559;DHT22;61650;48.882;2.092;2023-02-20T08:21:19;3.30;97.50
51559;DHT22;61650;48.882;2.092;2023-02-20T08:23:45;3.40;97.80
51559;DHT22;61650;48.882;2.092;2023-02-20T08:26:11;3.50;97.70
51559;DHT22;61650;48.882;2.092;2023-02-20T08:28:37;3.70;97.90
51559;DHT22;61650;48.882;2.092;2023-02-20T08:31:03;3.70;97.90
51559;DHT22;61650;48.882;2.092;2023-02-20T08:33:29;3.80;98.20
51559;DHT22;61650;48.882;2.092;2023-02-20T08:35:54;4.00;98.30
51559;DHT22;61650;48.882;2.092;2023-02-20T08:38:30;4.20;98.30
51559;DHT22;61650;48.882;2.092;2023-02-20T08:40:56;4.30;98.00
51559;DHT22;61650;48.882;2.092;2023-02-20T08:43:23;4.40;97.40
51559;DHT22;61650;48.882;2.092;2023-02-20T08:45:49;4.40;97.20
51559;DHT22;61650;48.882;2.092;2023-02-20T08:48:14;4.40;97.00
51559;DHT22;61650;48.882;2.092;2023-02-20T08:50:40;4.50;97.50
51559;DHT22;61650;48.882;2.092;2023-02-20T08:53:06;4.60;98.00
51559;DHT22;61650;48.882;2.092;2023-02-20T08:55:31;4.80;98.40
51559;DHT22;61650;48.882;2.092;2023-02-20T08:57:57;4.90;97.80
51559;DHT22;61650;48.882;2.092;2023-02-20T09:00:23;4.90;96.70
51559;DHT22;61650;48.882;2.092;2023-02-20T09:02:48;4.90;96.50
51559;DHT22;61650;48.882;2.092;2023-02-20T09:05:15;5.00;96.20
51559;DHT22;61650;48.882;2.092;2023-02-20T09:07:41;5.10;96.50
51559;DHT22;61650;48.882;2.092;2023-02-20T09:10:07;5.30;96.20
51559;DHT22;61650;48.882;2.092;2023-02-20T09:12:34;5.40;95.30
51559;DHT22;61650;48.882;2.092;2023-02-20T09:14:59;5.40;94.70
51559;DHT22;61650;48.882;2.092;2023-02-20T09:17:26;5.40;93.10
51559;DHT22;61650;48.882;2.092;2023-02-20T09:19:52;5.40;93.00
51559;DHT22;61650;48.882;2.092;2023-02-20T09:22:24;5.40;92.60
51559;DHT22;61650;48.882;2.092;2023-02-20T09:24:51;5.40;93.10
51559;DHT22;61650;48.882;2.092;2023-02-20T09:27:16;5.60;93.20
51559;DHT22;61650;48.882;2.092;2023-02-20T09:29:42;5.70;92.90
51559;DHT22;61650;48.882;2.092;2023-02-20T09:32:09;5.80;92.60
51559;DHT22;61650;48.882;2.092;2023-02-20T09:34:35;6.00;91.90
51559;DHT22;61650;48.882;2.092;2023-02-20T09:37:00;6.00;91.40
51559;DHT22;61650;48.882;2.092;2023-02-20T09:39:26;6.10;90.90
51559;DHT22;61650;48.882;2.092;2023-02-20T09:42:06;6.20;89.90
51559;DHT22;61650;48.882;2.092;2023-02-20T09:45:00;6.30;89.70
51559;DHT22;61650;48.882;2.092;2023-02-20T09:50:20;6.60;87.70
51559;DHT22;61650;48.882;2.092;2023-02-20T09:52:54;6.60;88.20
51559;DHT22;61650;48.882;2.092;2023-02-20T09:55:23;6.70;87.50
51559;DHT22;61650;48.882;2.092;2023-02-20T09:57:52;6.60;86.70
51559;DHT22;61650;48.882;2.092;2023-02-20T10:00:27;6.60;86.60
51559;DHT22;61650;48.882;2.092;2023-02-20T10:03:05;6.60;86.60
51559;DHT22;61650;48.882;2.092;2023-02-20T10:05:36;6.70;85.50
51559;DHT22;61650;48.882;2.092;2023-02-20T10:08:02;6.50;86.20
51559;DHT22;61650;48.882;2.092;2023-02-20T10:10:33;6.30;86.50
51559;DHT22;61650;48.882;2.092;2023-02-20T10:13:30;6.20;86.80
51559;DHT22;61650;48.882;2.092;2023-02-20T10:21:44;6.10;87.80
51559;DHT22;61650;48.882;2.092;2023-02-20T10:27:21;6.20;87.90
51559;DHT22;61650;48.882;2.092;2023-02-20T10:29:50;6.40;87.50
51559;DHT22;61650;48.882;2.092;2023-02-20T10:35:10;6.70;85.00
51559;DHT22;61650;48.882;2.092;2023-02-20T10:37:43;6.80;85.60
51559;DHT22;61650;48.882;2.092;2023-02-20T10:40:48;7.00;85.00
51559;DHT22;61650;48.882;2.092;2023-02-20T10:48:46;7.20;83.40
51559;DHT22;61650;48.882;2.092;2023-02-20T10:51:29;7.10;83.00
51559;DHT22;61650;48.882;2.092;2023-02-20T10:54:06;7.10;82.10
51559;DHT22;61650;48.882;2.092;2023-02-20T10:56:50;7.10;82.70
51559;DHT22;61650;48.882;2.092;2023-02-20T10:59:30;7.20;82.30
51559;DHT22;61650;48.882;2.092;2023-02-20T11:01:59;7.20;82.90
51559;DHT22;61650;48.882;2.092;2023-02-20T11:04:35;7.10;82.20
51559;DHT22;61650;48.882;2.092;2023-02-20T11:07:08;7.10;83.70
51559;DHT22;61650;48.882;2.092;2023-02-20T11:09:35;7.30;82.90
51559;DHT22;61650;48.882;2.092;2023-02-20T11:12:01;7.30;81.20
51559;DHT22;61650;48.882;2.092;2023-02-20T11:15:05;7.30;81.80
51559;DHT22;61650;48.882;2.092;2023-02-20T11:17:21;7.40;82.30
51559;DHT22;61650;48.882;2.092;2023-02-20T11:19:52;7.50;80.20
51559;DHT22;61650;48.882;2.092;2023-02-20T11:22:44;7.30;81.20
51559;DHT22;61650;48.882;2.092;2023-02-20T11:27:38;7.40;79.70
51559;DHT22;61650;48.882;2.092;2023-02-20T11:30:26;7.30;81.30
51559;DHT22;61650;48.882;2.092;2023-02-20T11:33:05;7.20;80.10
51559;DHT22;61650;48.882;2.092;2023-02-20T11:35:36;7.30;80.70
51559;DHT22;61650;48.882;2.092;2023-02-20T11:38:15;7.50;80.00
51559;DHT22;61650;48.882;2.092;2023-02-20T11:40:45;7.50;79.90
51559;DHT22;61650;48.882;2.092;2023-02-20T11:43:25;7.60;79.10
51559;DHT22;61650;48.882;2.092;2023-02-20T11:46:15;7.70;79.60
51559;DHT22;61650;48.882;2.092;2023-02-20T11:48:58;7.80;77.60
51559;DHT22;61650;48.882;2.092;2023-02-20T11:59:46;7.80;78.90
51559;DHT22;61650;48.882;2.092;2023-02-20T12:04:42;7.90;77.90
51559;DHT22;61650;48.882;2.092;2023-02-20T12:07:26;7.80;76.40
51559;DHT22;61650;48.882;2.092;2023-02-20T12:09:55;8.00;78.20
51559;DHT22;61650;48.882;2.092;2023-02-20T12:12:21;8.30;77.30
51559;DHT22;61650;48.882;2.092;2023-02-20T12:14:49;8.20;76.80
51559;DHT22;61650;48.882;2.092;2023-02-20T12:22:37;8.00;76.00
51559;DHT22;61650;48.882;2.092;2023-02-20T12:25:24;8.20;76.60
51559;DHT22;61650;48.882;2.092;2023-02-20T13:00:40;7.80;76.80
51559;DHT22;61650;48.882;2.092;2023-02-20T13:03:15;7.80;77.20
51559;DHT22;61650;48.882;2.092;2023-02-20T13:05:45;7.80;77.00
51559;DHT22;61650;48.882;2.092;2023-02-20T13:08:40;7.70;76.80
51559;DHT22;61650;48.882;2.092;2023-02-20T13:11:11;7.60;77.40
51559;DHT22;61650;48.882;2.092;2023-02-20T13:21:44;7.50;77.70
51559;DHT22;61650;48.882;2.092;2023-02-20T13:26:48;7.80;76.90
51559;DHT22;61650;48.882;2.092;2023-02-20T13:29:18;7.90;75.90
51559;DHT22;61650;48.882;2.092;2023-02-20T13:31:49;8.00;76.30
51559;DHT22;61650;48.882;2.092;2023-02-20T13:36:48;7.90;75.80
51559;DHT22;61650;48.882;2.092;2023-02-20T13:47:04;8.90;71.50
51559;DHT22;61650;48.882;2.092;2023-02-20T13:52:35;8.90;72.30
51559;DHT22;61650;48.882;2.092;2023-02-20T14:00:50;9.40;70.70
51559;DHT22;61650;48.882;2.092;2023-02-20T14:03:20;9.80;72.50
51559;DHT22;61650;48.882;2.092;2023-02-20T14:06:01;10.50;67.20
51559;DHT22;61650;48.882;2.092;2023-02-20T14:08:27;10.00;68.50
51559;DHT22;61650;48.882;2.092;2023-02-20T14:10:52;9.90;68.50
51559;DHT22;61650;48.882;2.092;2023-02-20T14:13:21;9.70;69.60
51559;DHT22;61650;48.882;2.092;2023-02-20T14:15:55;10.40;67.70
51559;DHT22;61650;48.882;2.092;2023-02-20T14:18:25;10.60;65.40
51559;DHT22;61650;48.882;2.092;2023-02-20T14:21:09;10.50;66.20
51559;DHT22;61650;48.882;2.092;2023-02-20T14:23:39;11.70;63.10
51559;DHT22;61650;48.882;2.092;2023-02-20T14:28:48;13.70;56.00
51559;DHT22;61650;48.882;2.092;2023-02-20T14:31:33;14.50;54.50
51559;DHT22;61650;48.882;2.092;2023-02-20T14:34:08;14.90;53.30
51559;DHT22;61650;48.882;2.092;2023-02-20T14:36:46;15.70;50.00
51559;DHT22;61650;48.882;2.092;2023-02-20T14:42:03;16.60;45.90
51559;DHT22;61650;48.882;2.092;2023-02-20T14:44:30;15.90;47.40
51559;DHT22;61650;48.882;2.092;2023-02-20T14:47:17;16.70;50.00
51559;DHT22;61650;48.882;2.092;2023-02-20T14:49:43;17.20;48.90
51559;DHT22;61650;48.882;2.092;2023-02-20T14:54:38;17.50;46.60
51559;DHT22;61650;48.882;2.092;2023-02-20T14:57:04;18.10;43.90
51559;DHT22;61650;48.882;2.092;2023-02-20T14:59:35;17.40;46.70
51559;DHT22;61650;48.882;2.092;2023-02-20T15:02:22;17.30;47.80
51559;DHT22;61650;48.882;2.092;2023-02-20T15:04:55;16.90;46.10
51559;DHT22;61650;48.882;2.092;2023-02-20T15:07:25;16.20;46.80
51559;DHT22;61650;48.882;2.092;2023-02-20T15:09:54;16.70;44.90
51559;DHT22;61650;48.882;2.092;2023-02-20T15:12:38;17.30;48.00
51559;DHT22;61650;48.882;2.092;2023-02-20T15:15:10;15.40;46.60
51559;DHT22;61650;48.882;2.092;2023-02-20T15:17:38;12.90;53.50
51559;DHT22;61650;48.882;2.092;2023-02-20T15:25:38;11.50;59.50
51559;DHT22;61650;48.882;2.092;2023-02-20T15:28:08;11.20;58.90
51559;DHT22;61650;48.882;2.092;2023-02-20T15:30:59;11.10;60.50
51559;DHT22;61650;48.882;2.092;2023-02-20T15:33:26;11.00;60.90
51559;DHT22;61650;48.882;2.092;2023-02-20T15:35:51;10.90;60.00
51559;DHT22;61650;48.882;2.092;2023-02-20T15:38:17;10.70;61.00
51559;DHT22;61650;48.882;2.092;2023-02-20T15:40:43;10.70;61.50
51559;DHT22;61650;48.882;2.092;2023-02-20T15:43:12;10.50;61.40
51559;DHT22;61650;48.882;2.092;2023-02-20T15:45:39;10.40;62.20
51559;DHT22;61650;48.882;2.092;2023-02-20T15:48:06;10.40;60.70
51559;DHT22;61650;48.882;2.092;2023-02-20T15:50:32;10.40;60.70
51559;DHT22;61650;48.882;2.092;2023-02-20T15:52:59;10.40;62.50
51559;DHT22;61650;48.882;2.092;2023-02-20T15:55:26;10.30;60.70
51559;DHT22;61650;48.882;2.092;2023-02-20T15:57:54;10.30;61.70
51559;DHT22;61650;48.882;2.092;2023-02-20T16:00:25;10.20;62.20
51559;DHT22;61650;48.882;2.092;2023-02-20T16:02:52;10.20;61.40
51559;DHT22;61650;48.882;2.092;2023-02-20T16:05:18;10.10;61.20
51559;DHT22;61650;48.882;2.092;2023-02-20T16:07:44;10.20;61.40
51559;DHT22;61650;48.882;2.092;2023-02-20T16:10:13;10.10;62.30
51559;DHT22;61650;48.882;2.092;2023-02-20T16:12:39;9.90;62.60
51559;DHT22;61650;48.882;2.092;2023-02-20T16:15:06;9.90;62.70
51559;DHT22;61650;48.882;2.092;2023-02-20T16:17:33;9.70;63.50
51559;DHT22;61650;48.882;2.092;2023-02-20T16:19:59;9.40;65.00
51559;DHT22;61650;48.882;2.092;2023-02-20T16:22:25;9.30;65.70
51559;DHT22;61650;48.882;2.092;2023-02-20T16:24:51;9.40;65.30
51559;DHT22;61650;48.882;2.092;2023-02-20T16:27:23;9.50;65.60
51559;DHT22;61650;48.882;2.092;2023-02-20T16:29:50;9.30;65.70
51559;DHT22;61650;48.882;2.092;2023-02-20T16:32:26;9.20;67.00
51559;DHT22;61650;48.882;2.092;2023-02-20T16:34:54;9.30;66.90
51559;DHT22;61650;48.882;2.092;2023-02-20T16:37:20;9.10;67.60
51559;DHT22;61650;48.882;2.092;2023-02-20T16:39:46;8.90;67.80
51559;DHT22;61650;48.882;2.092;2023-02-20T16:44:44;8.50;70.40
51559;DHT22;61650;48.882;2.092;2023-02-20T16:47:12;8.40;70.30
51559;DHT22;61650;48.882;2.092;2023-02-20T16:49:38;8.30;71.50
51559;DHT22;61650;48.882;2.092;2023-02-20T16:52:32;8.30;72.50
51559;DHT22;61650;48.882;2.092;2023-02-20T16:54:59;8.20;71.30
51559;DHT22;61650;48.882;2.092;2023-02-20T16:57:26;8.00;72.30
51559;DHT22;61650;48.882;2.092;2023-02-20T16:59:57;7.70;72.80
51559;DHT22;61650;48.882;2.092;2023-02-20T17:02:30;7.50;73.80
51559;DHT22;61650;48.882;2.092;2023-02-20T17:04:56;7.40;76.50
51559;DHT22;61650;48.882;2.092;2023-02-20T17:07:23;7.50;76.40
51559;DHT22;61650;48.882;2.092;2023-02-20T17:09:49;7.50;76.20
51559;DHT22;61650;48.882;2.092;2023-02-20T17:12:17;7.50;75.10
51559;DHT22;61650;48.882;2.092;2023-02-20T17:14:43;7.40;74.60
51559;DHT22;61650;48.882;2.092;2023-02-20T17:17:09;7.30;76.80
51559;DHT22;61650;48.882;2.092;2023-02-20T17:19:36;7.20;77.30
51559;DHT22;61650;48.882;2.092;2023-02-20T17:22:02;7.20;76.70
51559;DHT22;61650;48.882;2.092;2023-02-20T17:24:28;7.20;76.00
51559;DHT22;61650;48.882;2.092;2023-02-20T17:26:54;7.00;76.30
51559;DHT22;61650;48.882;2.092;2023-02-20T17:29:20;6.70;78.10
51559;DHT22;61650;48.882;2.092;2023-02-20T17:31:45;6.60;79.00
51559;DHT22;61650;48.882;2.092;2023-02-20T17:34:11;6.50;79.10
51559;DHT22;61650;48.882;2.092;2023-02-20T17:36:37;6.50;79.40
51559;DHT22;61650;48.882;2.092;2023-02-20T17:39:02;6.40;79.80
51559;DHT22;61650;48.882;2.092;2023-02-20T17:41:31;6.30;80.10
51559;DHT22;61650;48.882;2.092;2023-02-20T17:43:57;6.20;79.60
51559;DHT22;61650;48.882;2.092;2023-02-20T17:46:22;6.20;80.20
51559;DHT22;61650;48.882;2.092;2023-02-20T17:48:48;6.00;80.60
51559;DHT22;61650;48.882;2.092;2023-02-20T17:51:18;6.00;80.90
51559;DHT22;61650;48.882;2.092;2023-02-20T17:53:45;5.90;81.10
51559;DHT22;61650;48.882;2.092;2023-02-20T17:56:15;5.70;81.40
51559;DHT22;61650;48.882;2.092;2023-02-20T17:58:41;5.50;82.20
51559;DHT22;61650;48.882;2.092;2023-02-20T18:01:08;5.40;82.50
51559;DHT22;61650;48.882;2.092;2023-02-20T18:03:33;5.40;82.00
51559;DHT22;61650;48.882;2.092;2023-02-20T18:05:59;5.30;82.40
51559;DHT22;61650;48.882;2.092;2023-02-20T18:08:25;5.20;82.90
51559;DHT22;61650;48.882;2.092;2023-02-20T18:10:50;5.10;83.30
51559;DHT22;61650;48.882;2.092;2023-02-20T18:13:16;5.00;83.40
51559;DHT22;61650;48.882;2.092;2023-02-20T18:15:42;5.00;83.30
51559;DHT22;61650;48.882;2.092;2023-02-20T18:18:08;4.90;83.50
51559;DHT22;61650;48.882;2.092;2023-02-20T18:20:35;4.80;83.80